Time;durP1;ratioP1;P1;durP2;ratioP2;P2;SDS_P1;SDS_P2;PMS_P1;PMS_P2;Temp;Humidity;BMP_temperature;BMP_pressure;BME280_temperature;BME280_humidity;BME280_pressure;Samples;Min_cycle;Max_cycle;Signal;HPM_P1;HPM_P2
2022/12/26 00:02:08;;;;;;;44.77;25.23;;;;;;;5.08;100.00;100873.78;1710506;82;26049;-77
2022/12/26 00:04:35;;;;;;;50.10;28.45;;;;;;;5.08;100.00;100873.78;1700105;83;25868;-77
2022/12/26 00:07:01;;;;;;;50.23;26.70;;;;;;;5.04;100.00;100875.06;1683339;83;25732;-77
2022/12/26 00:09:27;;;;;;;49.93;28.00;;;;;;;5.03;100.00;100876.88;1690220;83;27462;-77
2022/12/26 00:11:54;;;;;;;50.50;28.02;;;;;;;5.03;100.00;100884.84;1690143;83;25857;-77
2022/12/26 00:14:20;;;;;;;45.88;28.77;;;;;;;5.04;100.00;100881.22;1696869;83;25790;-77
2022/12/26 00:16:46;;;;;;;46.02;26.10;;;;;;;5.05;100.00;100882.88;1690638;82;26017;-77
2022/12/26 00:19:13;;;;;;;48.45;27.22;;;;;;;5.05;100.00;100876.72;1690038;83;25746;-77
2022/12/26 00:21:39;;;;;;;47.13;28.38;;;;;;;5.07;100.00;100877.44;1660336;84;27454;-78
2022/12/26 00:24:08;;;;;;;44.88;27.17;;;;;;;5.10;100.00;100878.46;1693369;83;25895;-77
2022/12/26 00:26:35;;;;;;;48.75;27.55;;;;;;;5.11;100.00;100866.36;1690140;83;25826;-77
2022/12/26 00:29:03;;;;;;;43.87;26.27;;;;;;;5.12;100.00;100863.22;1686412;83;26616;-77
2022/12/26 00:31:32;;;;;;;47.98;26.85;;;;;;;5.10;100.00;100867.36;1694381;83;25754;-78
2022/12/26 00:33:59;;;;;;;50.12;26.48;;;;;;;5.09;100.00;100859.55;1683180;83;27459;-77
2022/12/26 00:36:30;;;;;;;45.78;27.25;;;;;;;5.10;100.00;100866.03;1661497;84;25967;-77
2022/12/26 00:38:59;;;;;;;45.70;25.45;;;;;;;5.10;100.00;100859.39;1689205;83;25727;-77
2022/12/26 00:41:26;;;;;;;54.55;26.40;;;;;;;5.11;100.00;100851.75;1693802;82;25743;-77
2022/12/26 00:43:52;;;;;;;49.35;25.43;;;;;;;5.11;100.00;100855.73;1695695;82;26359;-77
2022/12/26 00:46:18;;;;;;;46.42;23.05;;;;;;;5.11;100.00;100864.22;1690572;83;28942;-77
2022/12/26 00:48:46;;;;;;;42.00;24.72;;;;;;;5.12;100.00;100857.42;1701429;83;25741;-77
2022/12/26 00:51:14;;;;;;;44.03;25.50;;;;;;;5.15;100.00;100862.94;1670332;84;25940;-77
2022/12/26 00:56:04;;;;;;;44.23;24.15;;;;;;;5.18;100.00;100842.23;1829794;76;26314;-76
2022/12/26 00:58:31;;;;;;;41.60;24.77;;;;;;;5.13;100.00;100832.53;1787813;79;25737;-76
2022/12/26 01:01:18;;;;;;;40.55;25.05;;;;;;;5.11;100.00;100823.87;1804571;77;27452;-76
2022/12/26 01:03:46;;;;;;;46.53;23.95;;;;;;;5.11;100.00;100815.91;1793537;77;25261;-77
2022/12/26 01:06:14;;;;;;;47.65;25.57;;;;;;;5.08;100.00;100821.53;1797510;78;25727;-77
2022/12/26 01:08:41;;;;;;;48.28;26.60;;;;;;;5.10;100.00;100824.03;1789498;78;26448;-77
2022/12/26 01:11:12;;;;;;;43.73;25.17;;;;;;;5.12;100.00;100824.23;1774978;80;26651;-77
2022/12/26 01:13:39;;;;;;;41.60;23.52;;;;;;;5.11;100.00;100829.19;1798877;78;27520;-77
2022/12/26 01:16:06;;;;;;;46.70;23.98;;;;;;;5.11;100.00;100833.69;1794475;77;26490;-77
2022/12/26 01:18:33;;;;;;;44.98;26.12;;;;;;;5.12;100.00;100835.34;1787783;79;25754;-77
2022/12/26 01:21:05;;;;;;;40.30;23.57;;;;;;;5.12;100.00;100831.36;1785105;80;26409;-76
2022/12/26 01:23:31;;;;;;;41.83;21.95;;;;;;;5.15;100.00;100835.06;1798552;78;25819;-77
2022/12/26 01:25:57;;;;;;;40.67;24.12;;;;;;;5.15;100.00;100833.25;1786247;79;27433;-77
2022/12/26 01:28:24;;;;;;;40.55;23.32;;;;;;;5.16;100.00;100829.59;1777327;78;25936;-77
2022/12/26 01:30:50;;;;;;;40.35;23.75;;;;;;;5.17;100.00;100836.59;1776640;80;26348;-77
2022/12/26 01:33:16;;;;;;;40.43;23.57;;;;;;;5.22;100.00;100828.16;1784930;78;26299;-77
2022/12/26 01:35:51;;;;;;;40.65;22.80;;;;;;;5.22;100.00;100818.38;1784219;78;25887;-77
2022/12/26 01:38:18;;;;;;;41.80;24.50;;;;;;;5.23;100.00;100820.55;1787054;78;27465;-77
2022/12/26 01:40:45;;;;;;;40.78;23.67;;;;;;;5.24;100.00;100812.91;1789579;78;25746;-77
2022/12/26 01:45:59;;;;;;;40.03;24.18;;;;;;;5.24;100.00;100797.82;1825427;76;26525;-76
2022/12/26 01:48:32;;;;;;;36.42;22.02;;;;;;;5.25;100.00;100808.80;1758124;77;25866;-77
2022/12/26 01:51:05;;;;;;;39.13;22.45;;;;;;;5.27;100.00;100798.87;1799428;78;28456;-76
2022/12/26 01:53:42;;;;;;;38.48;23.27;;;;;;;5.29;100.00;100788.09;1800225;78;26372;-76
2022/12/26 01:56:14;;;;;;;40.00;24.55;;;;;;;5.30;100.00;100780.48;1796421;78;25939;-76
2022/12/26 01:58:52;;;;;;;43.40;24.02;;;;;;;5.30;100.00;100774.66;1796070;78;25767;-76
2022/12/26 02:01:20;;;;;;;42.78;24.70;;;;;;;5.32;100.00;100773.20;1813054;78;25785;-76
2022/12/26 02:06:34;;;;;;;42.30;24.37;;;;;;;5.34;100.00;100757.95;1797716;78;25798;-77
2022/12/26 02:09:00;;;;;;;45.58;25.97;;;;;;;5.35;100.00;100757.79;1815639;78;25843;-77
2022/12/26 02:11:41;;;;;;;43.35;25.10;;;;;;;5.36;100.00;100751.99;1805379;78;25857;-77
2022/12/26 02:14:08;;;;;;;44.13;23.85;;;;;;;5.38;100.00;100755.33;1803086;78;25902;-77
2022/12/26 02:16:37;;;;;;;38.88;22.82;;;;;;;5.38;100.00;100749.53;1815263;78;26852;-77
2022/12/26 02:19:08;;;;;;;39.30;22.87;;;;;;;5.39;100.00;100755.17;1786270;78;25794;-77
2022/12/26 02:22:03;;;;;;;41.28;22.93;;;;;;;5.36;100.00;100754.16;1798035;78;25627;-77
2022/12/26 02:24:59;;;;;;;46.08;25.82;;;;;;;5.37;100.00;100741.69;1752107;78;26650;-77
2022/12/26 02:27:46;;;;;;;44.08;23.62;;;;;;;5.38;100.00;100740.72;1752666;79;25846;-77
2022/12/26 02:30:42;;;;;;;42.67;23.10;;;;;;;5.38;100.00;100739.39;1791766;78;27435;-77
2022/12/26 02:33:32;;;;;;;37.67;22.80;;;;;;;5.37;100.00;100731.06;1804685;78;25808;-77
2022/12/26 02:36:22;;;;;;;34.60;20.52;;;;;;;5.34;100.00;100730.90;1711433;83;25947;-77
2022/12/26 02:39:14;;;;;;;32.88;20.72;;;;;;;5.35;100.00;100739.20;1712377;82;25947;-77
2022/12/26 02:42:05;;;;;;;38.70;21.87;;;;;;;5.36;100.00;100735.56;1781181;78;26086;-77
2022/12/26 02:48:14;;;;;;;31.57;18.35;;;;;;;5.38;100.00;100708.84;1807149;78;26336;-77
2022/12/26 03:14:53;;;;;;;32.40;19.62;;;;;;;5.35;100.00;100623.66;1822225;78;27685;-77
2022/12/26 03:17:40;;;;;;;34.83;19.90;;;;;;;5.36;100.00;100645.75;1811041;78;25830;-77
2022/12/26 03:20:20;;;;;;;32.95;19.35;;;;;;;5.35;100.00;100624.98;1825550;76;25837;-77
2022/12/26 03:22:51;;;;;;;31.90;18.23;;;;;;;5.34;100.00;100619.34;1817620;77;26549;-77
2022/12/26 03:28:26;;;;;;;32.15;17.90;;;;;;;5.32;100.00;100594.73;1800200;78;27476;-77
2022/12/26 03:30:56;;;;;;;27.87;18.02;;;;;;;5.31;100.00;100577.15;1815295;78;26419;-77
2022/12/26 03:36:21;;;;;;;34.03;19.00;;;;;;;5.30;100.00;100562.70;1804779;78;26199;-77
2022/12/26 03:39:17;;;;;;;29.87;18.67;;;;;;;5.29;100.00;100568.98;1827498;78;25794;-77
2022/12/26 04:19:53;;;;;;;25.88;16.52;;;;;;;5.18;100.00;100480.27;1811380;78;25808;-77
2022/12/26 04:45:20;;;;;;;21.85;13.62;;;;;;;5.11;100.00;100442.88;1820118;78;25797;-77
2022/12/26 04:50:34;;;;;;;21.02;12.43;;;;;;;5.11;100.00;100444.73;1821747;78;26433;-76
2022/12/26 04:53:00;;;;;;;22.10;13.40;;;;;;;5.11;100.00;100444.21;1820164;78;28289;-76
2022/12/26 04:55:34;;;;;;;21.73;12.90;;;;;;;5.12;100.00;100430.45;1822918;78;25730;-76
2022/12/26 04:58:02;;;;;;;21.12;13.75;;;;;;;5.10;100.00;100404.07;1822596;78;25846;-76
2022/12/26 05:00:29;;;;;;;19.70;13.22;;;;;;;5.11;100.00;100408.89;1814723;78;25966;-77
2022/12/26 05:11:09;;;;;;;18.77;12.63;;;;;;;5.07;100.00;100385.78;1822108;78;25789;-77
2022/12/26 05:13:36;;;;;;;18.85;12.78;;;;;;;5.07;100.00;100389.77;1821005;78;25868;-77
2022/12/26 05:29:47;;;;;;;20.65;12.80;;;;;;;5.18;100.00;100445.27;1823756;78;25365;-77
2022/12/26 05:34:58;;;;;;;19.50;12.15;;;;;;;5.23;100.00;100442.15;1824011;78;26449;-77
2022/12/26 05:37:24;;;;;;;17.50;12.80;;;;;;;5.25;100.00;100422.42;1820270;78;25773;-77
2022/12/26 05:39:50;;;;;;;17.80;11.97;;;;;;;5.26;100.00;100412.12;1817088;78;25882;-78
2022/12/26 05:42:17;;;;;;;18.87;12.45;;;;;;;5.27;100.00;100415.12;1816565;78;26320;-77
2022/12/26 05:44:43;;;;;;;16.40;11.12;;;;;;;5.28;100.00;100413.31;1820976;78;27612;-77
2022/12/26 05:47:10;;;;;;;16.52;11.70;;;;;;;5.28;100.00;100418.62;1822597;78;26353;-77
2022/12/26 05:49:37;;;;;;;18.90;12.85;;;;;;;5.30;100.00;100410.00;1828278;76;25857;-77
2022/12/26 05:52:04;;;;;;;15.70;11.38;;;;;;;5.32;100.00;100395.55;1816541;78;25720;-77
2022/12/26 05:54:30;;;;;;;19.05;12.55;;;;;;;5.32;100.00;100405.36;1822641;78;25860;-77
2022/12/26 05:56:56;;;;;;;15.90;11.20;;;;;;;5.31;100.00;100411.65;1822954;78;27455;-77
2022/12/26 05:59:22;;;;;;;16.35;11.50;;;;;;;5.30;100.00;100399.37;1815233;78;25816;-77
2022/12/26 06:01:49;;;;;;;16.70;11.38;;;;;;;5.29;100.00;100401.19;1817905;78;26451;-77
2022/12/26 06:04:15;;;;;;;19.80;13.08;;;;;;;5.29;100.00;100372.47;1818814;78;25914;-77
2022/12/26 06:06:41;;;;;;;16.75;11.97;;;;;;;5.29;100.00;100348.56;1820575;78;26395;-77
2022/12/26 06:09:07;;;;;;;15.35;11.60;;;;;;;5.29;100.00;100341.93;1819562;78;27515;-77
2022/12/26 06:11:34;;;;;;;17.07;11.38;;;;;;;5.27;100.00;100333.30;1823958;78;25641;-77
2022/12/26 06:14:00;;;;;;;15.45;11.25;;;;;;;5.26;100.00;100325.01;1816300;78;26344;-77
2022/12/26 06:16:28;;;;;;;19.07;12.28;;;;;;;5.25;100.00;100310.89;1817840;78;26239;-77
2022/12/26 06:18:55;;;;;;;17.20;11.63;;;;;;;5.22;100.00;100324.47;1822231;78;26548;-77
2022/12/26 06:21:23;;;;;;;15.53;11.03;;;;;;;5.22;100.00;100335.58;1821222;78;28291;-77
2022/12/26 06:23:50;;;;;;;18.75;11.63;;;;;;;5.21;100.00;100333.45;1827572;77;26518;-77
2022/12/26 06:26:16;;;;;;;18.10;11.55;;;;;;;5.22;100.00;100320.48;1836415;77;25841;-78
2022/12/26 06:28:43;;;;;;;20.35;13.30;;;;;;;5.23;100.00;100325.31;1829078;77;25769;-77
2022/12/26 06:31:16;;;;;;;16.85;11.80;;;;;;;5.24;100.00;100325.63;1823845;76;25750;-77
2022/12/26 06:33:43;;;;;;;18.50;12.50;;;;;;;5.25;100.00;100332.13;1838610;77;27424;-77
2022/12/26 06:36:16;;;;;;;16.15;11.15;;;;;;;5.26;100.00;100347.06;1846295;75;25860;-77
2022/12/26 06:38:43;;;;;;;18.02;12.50;;;;;;;5.29;100.00;100359.19;1840643;75;25741;-77
2022/12/26 06:41:16;;;;;;;17.20;11.95;;;;;;;5.31;100.00;100346.09;1837164;77;26713;-77
2022/12/26 06:43:42;;;;;;;17.82;11.53;;;;;;;5.33;100.00;100326.84;1847366;76;25914;-77
2022/12/26 06:46:14;;;;;;;16.07;11.35;;;;;;;5.34;100.00;100306.44;1844529;76;27480;-77
2022/12/26 06:48:40;;;;;;;19.75;12.07;;;;;;;5.34;100.00;100286.52;1840432;76;25875;-77
2022/12/26 06:51:11;;;;;;;19.23;12.58;;;;;;;5.33;100.00;100293.66;1839576;76;25754;-77
2022/12/26 06:53:38;;;;;;;16.55;11.93;;;;;;;5.33;100.00;100288.34;1838989;75;26280;-77
2022/12/26 06:56:22;;;;;;;18.10;12.23;;;;;;;5.34;100.00;100286.52;1835838;76;26363;-77
2022/12/26 06:59:00;;;;;;;17.98;11.80;;;;;;;5.34;100.00;100283.87;1803999;75;28647;-77
2022/12/26 07:01:30;;;;;;;16.05;11.93;;;;;;;5.36;100.00;100297.81;1833028;77;26371;-77
2022/12/26 07:03:56;;;;;;;19.02;13.00;;;;;;;5.37;100.00;100288.35;1813390;78;25810;-77
2022/12/26 07:06:29;;;;;;;20.02;12.68;;;;;;;5.36;100.00;100303.97;1808519;78;25765;-77
2022/12/26 07:09:03;;;;;;;25.27;17.42;;;;;;;5.40;100.00;100292.52;1819671;78;25932;-77
2022/12/26 07:11:33;;;;;;;30.30;17.80;;;;;;;5.42;100.00;100280.74;1818765;78;27420;-77
2022/12/26 07:14:00;;;;;;;22.37;14.93;;;;;;;5.43;100.00;100294.34;1817582;78;26372;-77
2022/12/26 07:16:27;;;;;;;27.50;16.80;;;;;;;5.44;100.00;100292.03;1816624;78;25979;-77
2022/12/26 07:18:57;;;;;;;27.98;19.35;;;;;;;5.47;100.00;100287.71;1818980;78;26184;-78
2022/12/26 07:21:25;;;;;;;23.25;14.65;;;;;;;5.50;100.00;100297.19;1817061;78;25848;-78
2022/12/26 07:23:54;;;;;;;27.82;18.10;;;;;;;5.53;100.00;100312.81;1825944;78;27445;-78
2022/12/26 07:26:22;;;;;;;25.55;17.48;;;;;;;5.57;100.00;100326.59;1826675;78;25772;-78
2022/12/26 07:28:56;;;;;;;31.05;19.07;;;;;;;5.61;100.00;100337.23;1821910;78;25848;-77
2022/12/26 07:31:23;;;;;;;32.05;20.40;;;;;;;5.65;100.00;100335.42;1815319;78;25907;-77
2022/12/26 07:33:53;;;;;;;27.73;17.45;;;;;;;5.69;100.00;100318.68;1814450;78;25749;-77
2022/12/26 07:36:20;;;;;;;26.57;16.07;;;;;;;5.75;100.00;100298.09;1819902;78;27450;-77
2022/12/26 07:38:47;;;;;;;27.02;17.67;;;;;;;5.76;100.00;100275.83;1815617;78;25735;-77
2022/12/26 07:44:00;;;;;;;28.32;19.82;;;;;;;5.78;100.00;100268.52;1804085;78;26474;-84
2022/12/26 07:46:26;;;;;;;22.87;16.23;;;;;;;5.79;100.00;100270.20;1804882;78;25932;-84
2022/12/26 07:48:52;;;;;;;26.82;17.85;;;;;;;5.81;100.00;100276.17;1823126;78;27434;-84
2022/12/26 07:51:20;;;;;;;26.20;17.55;;;;;;;5.83;100.00;100287.47;1806187;78;25962;-84
2022/12/26 07:53:47;;;;;;;30.40;19.52;;;;;;;5.84;100.00;100285.16;1818850;78;25772;-86
2022/12/26 07:56:14;;;;;;;33.10;20.43;;;;;;;5.85;100.00;100290.83;1813717;78;25951;-87
2022/12/26 07:58:40;;;;;;;27.05;18.30;;;;;;;5.87;100.00;100280.86;1823320;78;25914;-86
2022/12/26 08:01:07;;;;;;;32.40;19.55;;;;;;;5.89;100.00;100265.09;1790059;78;28302;-83
2022/12/26 08:03:34;;;;;;;33.38;22.42;;;;;;;5.93;100.00;100263.76;1818004;78;26215;-86
2022/12/26 08:06:01;;;;;;;31.90;20.25;;;;;;;5.95;100.00;100255.13;1813498;78;25865;-87
2022/12/26 08:08:27;;;;;;;27.48;18.77;;;;;;;5.98;100.00;100246.83;1808490;78;25831;-87
2022/12/26 08:11:01;;;;;;;26.35;18.07;;;;;;;5.98;100.00;100244.66;1813916;78;25876;-88
2022/12/26 08:13:28;;;;;;;31.48;19.73;;;;;;;5.98;100.00;100250.81;1819581;78;28266;-82
2022/12/26 08:15:55;;;;;;;30.43;19.40;;;;;;;6.00;100.00;100251.97;1811396;78;25889;-84
2022/12/26 08:18:22;;;;;;;30.52;19.73;;;;;;;6.01;100.00;100246.48;1823004;78;25741;-86
2022/12/26 08:20:50;;;;;;;30.40;19.95;;;;;;;6.05;100.00;100252.31;1825845;78;25915;-84
2022/12/26 08:23:16;;;;;;;28.20;20.57;;;;;;;6.07;100.00;100255.64;1825089;78;26278;-84
2022/12/26 08:25:42;;;;;;;30.48;19.87;;;;;;;6.10;100.00;100229.53;1822722;77;27600;-84
2022/12/26 08:28:09;;;;;;;32.80;23.22;;;;;;;6.13;100.00;100233.69;1802718;78;26203;-83
2022/12/26 08:30:41;;;;;;;33.65;23.55;;;;;;;6.15;100.00;100230.36;1813722;78;25838;-86
2022/12/26 08:33:08;;;;;;;29.72;19.50;;;;;;;6.17;100.00;100225.70;1822568;78;25455;-84
2022/12/26 08:35:37;;;;;;;34.08;23.30;;;;;;;6.20;100.00;100227.52;1807435;78;25755;-84
2022/12/26 08:38:04;;;;;;;32.65;20.37;;;;;;;6.24;100.00;100230.70;1818565;78;28306;-83
2022/12/26 08:40:31;;;;;;;34.05;23.15;;;;;;;6.27;100.00;100223.69;1819181;78;26137;-85
2022/12/26 08:42:58;;;;;;;41.98;24.92;;;;;;;6.32;100.00;100227.18;1814762;78;26156;-81
2022/12/26 08:45:24;;;;;;;33.08;21.02;;;;;;;6.35;100.00;100221.02;1812923;77;25636;-83
2022/12/26 08:47:54;;;;;;;30.95;20.68;;;;;;;6.40;100.00;100221.84;1806091;78;26179;-84
2022/12/26 08:50:20;;;;;;;31.68;20.10;;;;;;;6.45;100.00;100219.02;1814623;78;27458;-84
2022/12/26 08:52:47;;;;;;;32.98;21.02;;;;;;;6.48;100.00;100226.64;1801882;78;25802;-86
2022/12/26 08:55:13;;;;;;;34.18;20.60;;;;;;;6.51;100.00;100226.81;1818384;78;25917;-84
2022/12/26 08:57:40;;;;;;;37.55;21.70;;;;;;;6.54;100.00;100232.65;1815965;78;25905;-86
2022/12/26 09:00:08;;;;;;;38.95;20.77;;;;;;;6.58;100.00;100223.81;1812617;78;25816;-87
2022/12/26 09:02:46;;;;;;;;;;;;;;;;;;;;;
2022/12/26 09:07:46;;;;;;;35.73;19.90;;;;;;;6.67;100.00;100198.84;1729625;78;25789;-84
2022/12/26 09:10:13;;;;;;;33.88;20.80;;;;;;;6.70;100.00;100200.66;1819426;78;25973;-83
2022/12/26 09:12:39;;;;;;;32.50;20.25;;;;;;;6.72;100.00;100199.14;1819164;78;26035;-83
2022/12/26 09:15:06;;;;;;;33.85;20.50;;;;;;;6.77;100.00;100204.30;1819574;78;27441;-85
2022/12/26 09:17:32;;;;;;;44.13;26.27;;;;;;;6.80;100.00;100205.27;1804469;78;25825;-86
2022/12/26 09:19:58;;;;;;;38.10;23.00;;;;;;;6.83;100.00;100203.61;1808957;78;25893;-86
2022/12/26 09:25:10;;;;;;;74.15;48.75;;;;;;;6.92;100.00;100191.09;1806663;78;25791;-77
2022/12/26 09:27:36;;;;;;;39.83;24.77;;;;;;;6.98;100.00;100182.41;1802166;78;27515;-85
2022/12/26 09:30:03;;;;;;;38.70;26.57;;;;;;;7.02;100.00;100177.05;1794018;78;26348;-86
2022/12/26 09:32:34;;;;;;;39.50;26.77;;;;;;;7.07;100.00;100171.20;1820659;78;25907;-84
2022/12/26 09:35:01;;;;;;;;;;;;;;;7.10;100.00;100175.67;1805262;78;26658;-85
2022/12/26 09:37:27;;;;;;;35.00;22.10;;;;;;;7.15;100.00;100171.99;1811493;78;26294;-84
2022/12/26 09:39:53;;;;;;;37.10;23.98;;;;;;;7.17;100.00;100175.80;1818020;78;27474;-85
2022/12/26 09:42:40;;;;;;;47.78;36.60;;;;;;;7.23;100.00;100179.13;1822378;78;25780;-84
2022/12/26 09:45:17;;;;;;;35.48;24.92;;;;;;;7.26;100.00;100168.94;1806221;78;26108;-85
2022/12/26 09:47:58;;;;;;;30.80;21.12;;;;;;;7.31;100.00;100181.23;1820355;78;25808;-83
2022/12/26 09:50:34;;;;;;;33.58;20.15;;;;;;;7.34;100.00;100179.53;1781632;78;25801;-86
2022/12/26 09:53:07;;;;;;;28.32;19.67;;;;;;;7.39;100.00;100175.02;1808441;78;28279;-83
2022/12/26 09:55:45;;;;;;;36.60;23.00;;;;;;;7.43;100.00;100183.81;1795652;78;26329;-84
2022/12/26 09:58:31;;;;;;;39.18;22.87;;;;;;;7.47;100.00;100179.78;1818470;78;25871;-86
2022/12/26 10:01:06;;;;;;;36.55;22.95;;;;;;;7.53;100.00;100183.56;1812445;78;25849;-82
2022/12/26 10:03:37;;;;;;;36.50;22.52;;;;;;;7.57;100.00;100171.58;1818902;78;25818;-86
2022/12/26 10:06:07;;;;;;;;;;;;;;;7.62;100.00;100172.69;1815711;78;27453;-85
2022/12/26 10:09:06;;;;;;;46.98;26.87;;;;;;;7.69;100.00;100175.47;1819148;78;25976;-83
2022/12/26 10:11:58;;;;;;;38.83;23.85;;;;;;;7.73;100.00;100173.61;1813377;78;25309;-85
2022/12/26 10:15:20;;;;;;;43.68;29.15;;;;;;;7.79;100.00;100166.72;1807018;78;26267;-85
2022/12/26 10:17:57;;;;;;;35.30;20.97;;;;;;;7.85;100.00;100165.19;1816547;78;25880;-87
2022/12/26 10:20:52;;;;;;;35.75;20.92;;;;;;;7.91;100.00;100165.80;1809335;78;28782;-83
2022/12/26 10:23:40;;;;;;;38.83;25.32;;;;;;;7.96;100.00;100165.56;1811985;78;25846;-80
2022/12/26 10:26:32;;;;;;;35.45;21.45;;;;;;;8.01;100.00;100154.36;1797061;78;26086;-83
2022/12/26 10:29:13;;;;;;;32.67;20.97;;;;;;;8.07;100.00;100154.97;1817927;78;26321;-81
2022/12/26 10:31:43;;;;;;;;;;;;;;;8.11;100.00;100146.42;1816880;78;25758;-87
2022/12/26 10:34:30;;;;;;;39.13;25.72;;;;;;;8.16;100.00;100143.21;1822757;78;27459;-87
2022/12/26 10:37:33;;;;;;;44.77;27.87;;;;;;;8.18;100.00;100140.69;1808453;78;25818;-86
2022/12/26 10:40:22;;;;;;;44.30;28.38;;;;;;;8.24;100.00;100133.78;1808265;77;25878;-84
2022/12/26 10:42:55;;;;;;;31.87;19.87;;;;;;;8.33;100.00;100128.72;1771527;77;25874;-86
2022/12/26 10:45:42;;;;;;;29.40;19.30;;;;;;;8.41;100.00;100122.78;1799995;78;26360;-76
2022/12/26 10:48:12;;;;;;;30.10;18.40;;;;;;;8.50;100.00;100128.36;1816265;78;27471;-81
2022/12/26 10:50:40;;;;;;;34.63;19.73;;;;;;;8.60;100.00;100124.59;1818847;78;26186;-82
2022/12/26 10:53:11;;;;;;;30.30;19.70;;;;;;;8.68;100.00;100129.82;1816267;78;26435;-78
2022/12/26 10:55:37;;;;;;;;;;;;;;;8.76;100.00;100131.05;1808921;78;26066;-78
2022/12/26 10:58:27;;;;;;;33.18;20.30;;;;;;;8.83;100.00;100131.97;1808545;78;25830;-78
2022/12/26 11:00:53;;;;;;;31.90;21.30;;;;;;;8.87;100.00;100128.73;1814582;78;27641;-78
2022/12/26 11:03:20;;;;;;;26.17;16.70;;;;;;;8.94;100.00;100132.30;1810057;78;25852;-83
2022/12/26 11:05:52;;;;;;;22.40;14.85;;;;;;;9.00;100.00;100131.53;1815433;78;25784;-83
2022/12/26 11:08:26;;;;;;;20.77;13.15;;;;;;;9.08;100.00;100127.95;1824769;78;25970;-77
2022/12/26 11:11:24;;;;;;;18.23;12.30;;;;;;;9.14;100.00;100117.33;1821071;78;26650;-77
2022/12/26 11:13:57;;;;;;;22.73;12.85;;;;;;;9.21;100.00;100116.06;1824062;78;27462;-79
2022/12/26 11:16:31;;;;;;;19.73;13.22;;;;;;;9.30;100.00;100121.08;1825329;78;25762;-78
2022/12/26 11:18:58;;;;;;;19.82;13.90;;;;;;;9.38;100.00;100117.48;1822664;78;25917;-78
2022/12/26 11:21:28;;;;;;;21.62;17.20;;;;;;;9.46;100.00;100117.34;1806646;78;25766;-78
2022/12/26 11:24:18;;;;;;;21.02;15.43;;;;;;;9.51;100.00;100116.27;1812118;78;25869;-78
2022/12/26 11:26:45;;;;;;;16.63;11.07;;;;;;;9.57;100.00;100116.00;1824166;78;26875;-80
2022/12/26 11:29:21;;;;;;;16.15;10.58;;;;;;;9.63;100.00;100121.91;1817123;78;25832;-80
2022/12/26 11:32:00;;;;;;;16.85;11.05;;;;;;;9.68;100.00;100120.84;1814353;78;26371;-80
2022/12/26 11:34:44;;;;;;;13.45;10.82;;;;;;;9.71;100.00;100115.92;1825824;78;25635;-81
2022/12/26 11:37:10;;;;;;;18.05;11.65;;;;;;;9.76;100.00;100119.36;1814345;78;25872;-81
2022/12/26 11:39:37;;;;;;;26.20;14.00;;;;;;;9.82;100.00;100118.58;1809165;78;27471;-81
2022/12/26 11:42:14;;;;;;;16.52;11.65;;;;;;;9.84;100.00;100112.52;1817790;78;25760;-81
2022/12/26 11:44:44;;;;;;;17.70;11.80;;;;;;;9.89;100.00;100110.94;1815352;78;26615;-81
2022/12/26 11:47:15;;;;;;;44.50;25.50;;;;;;;9.91;100.00;100108.89;1811493;78;25919;-81
2022/12/26 11:50:06;;;;;;;53.15;33.00;;;;;;;9.94;100.00;100104.48;1784261;78;25782;-81
2022/12/26 11:52:56;;;;;;;63.65;40.15;;;;;;;9.96;100.00;100100.30;1814192;78;28908;-81
2022/12/26 11:55:28;;;;;;;21.37;14.33;;;;;;;9.96;100.00;100105.64;1823432;78;25762;-80
2022/12/26 11:58:09;;;;;;;16.95;14.10;;;;;;;10.00;100.00;100100.22;1806350;78;26450;-80
2022/12/26 12:00:44;;;;;;;;;;;;;;;10.02;100.00;100103.02;1820831;78;26282;-80
2022/12/26 12:03:15;;;;;;;13.80;11.33;;;;;;;10.03;100.00;100097.96;1823195;78;25537;-79
2022/12/26 12:05:56;;;;;;;12.33;9.60;;;;;;;10.04;100.00;100102.81;1808922;78;27467;-80
2022/12/26 12:08:40;;;;;;;12.85;8.58;;;;;;;10.05;100.00;100112.51;1825884;78;25785;-80
2022/12/26 12:11:39;;;;;;;12.23;8.43;;;;;;;10.08;100.00;100114.77;1821633;78;25426;-81
2022/12/26 12:14:23;;;;;;;12.00;8.33;;;;;;;10.09;100.00;100111.89;1810291;78;26366;-81
2022/12/26 12:17:04;;;;;;;12.03;8.83;;;;;;;10.12;100.00;100120.08;1829787;77;25816;-82
2022/12/26 12:19:51;;;;;;;13.40;9.40;;;;;;;10.14;100.00;100122.05;1799410;79;27722;-80
2022/12/26 12:22:34;;;;;;;16.05;10.30;;;;;;;10.15;100.00;100119.70;1814141;78;26061;-81
2022/12/26 12:25:37;;;;;;;12.05;8.73;;;;;;;10.17;100.00;100121.67;1829281;78;25762;-80
2022/12/26 12:28:35;;;;;;;14.23;9.50;;;;;;;10.19;100.00;100111.59;1815885;78;25854;-80
2022/12/26 12:31:32;;;;;;;11.33;8.53;;;;;;;10.24;100.00;100115.03;1819210;78;25851;-81
2022/12/26 12:34:10;;;;;;;12.43;7.42;;;;;;;10.27;100.00;100119.97;1818802;78;27637;-81
2022/12/26 12:37:00;;;;;;;12.37;8.60;;;;;;;10.29;100.00;100120.09;1821422;78;25961;-81
2022/12/26 12:40:07;;;;;;;13.75;9.18;;;;;;;10.34;100.00;100115.49;1797580;78;25832;-81
2022/12/26 12:42:58;;;;;;;18.15;10.63;;;;;;;10.39;100.00;100133.14;1811045;77;26227;-81
2022/12/26 12:45:36;;;;;;;24.12;13.08;;;;;;;10.44;100.00;100137.38;1795426;78;26271;-82
2022/12/26 12:48:31;;;;;;;17.25;10.10;;;;;;;10.47;100.00;100128.96;1832787;77;27576;-80
2022/12/26 12:51:21;;;;;;;20.90;11.70;;;;;;;10.50;100.00;100132.59;1796122;78;25940;-80
2022/12/26 12:54:14;;;;;;;21.25;12.88;;;;;;;10.53;100.00;100137.54;1799509;78;25502;-80
2022/12/26 12:57:18;;;;;;;33.65;18.62;;;;;;;10.53;100.00;100138.87;1812466;78;26453;-80
2022/12/26 13:00:15;;;;;;;20.55;13.78;;;;;;;10.56;100.00;100137.16;1807971;78;25821;-81
2022/12/26 13:03:12;;;;;;;24.92;19.15;;;;;;;10.57;100.00;100144.15;1817000;78;28257;-81
2022/12/26 13:06:07;;;;;;;30.90;16.25;;;;;;;10.58;100.00;100141.80;1771034;78;26551;-80
2022/12/26 13:08:55;;;;;;;17.92;11.48;;;;;;;10.58;100.00;100142.64;1803728;78;26004;-81
2022/12/26 13:11:27;;;;;;;20.88;11.90;;;;;;;10.59;100.00;100141.59;1812092;78;26012;-81
2022/12/26 13:14:11;;;;;;;18.27;10.65;;;;;;;10.60;100.00;100135.23;1801887;78;26533;-80
2022/12/26 13:16:42;;;;;;;20.08;12.05;;;;;;;10.63;100.00;100122.77;1800837;78;27638;-84
2022/12/26 13:19:18;;;;;;;;;;;;;;;10.65;100.00;100119.38;1805584;78;26333;-85
2022/12/26 13:21:46;;;;;;;16.52;10.48;;;;;;;10.69;100.00;100122.50;1799145;78;26087;-86
2022/12/26 13:24:24;;;;;;;14.85;9.63;;;;;;;10.69;100.00;100116.61;1808446;78;26326;-86
2022/12/26 13:27:07;;;;;;;20.75;13.03;;;;;;;10.70;100.00;100120.11;1815219;78;25302;-84
2022/12/26 13:29:41;;;;;;;23.32;14.25;;;;;;;10.70;100.00;100128.98;1811519;78;27524;-85
2022/12/26 13:32:27;;;;;;;14.15;10.75;;;;;;;10.71;100.00;100127.95;1804292;78;25720;-87
2022/12/26 13:34:57;;;;;;;15.60;10.18;;;;;;;10.72;100.00;100126.09;1808401;78;26133;-88
2022/12/26 13:37:51;;;;;;;13.68;9.83;;;;;;;10.73;100.00;100122.41;1810951;78;25948;-87
2022/12/26 13:40:21;;;;;;;10.35;7.90;;;;;;;10.72;100.00;100121.58;1747741;80;26333;-87
2022/12/26 13:45:56;;;;;;;11.93;8.40;;;;;;;10.73;100.00;100122.41;1747264;80;25849;-86
2022/12/26 13:48:31;;;;;;;13.93;8.98;;;;;;;10.73;100.00;100117.85;1722839;80;26510;-87
2022/12/26 13:51:04;;;;;;;13.93;8.90;;;;;;;10.74;100.00;100120.86;1751829;81;26342;-85
2022/12/26 13:53:36;;;;;;;13.20;7.90;;;;;;;10.75;100.00;100119.84;1751774;80;25771;-85
2022/12/26 13:56:19;;;;;;;13.43;8.78;;;;;;;10.77;100.00;100115.63;1773910;78;27514;-79
2022/12/26 13:59:03;;;;;;;11.22;7.83;;;;;;;10.77;100.00;100115.12;1751620;80;26331;-78
2022/12/26 14:01:59;;;;;;;33.15;19.48;;;;;;;10.77;100.00;100127.17;1752501;80;25817;-86
2022/12/26 14:04:34;;;;;;;15.23;8.43;;;;;;;10.78;100.00;100122.11;1752329;80;26665;-79